Krisjanis Valdemars — V7LI9 — position and weather

sailwx.info

Track history (hours):
 
Tides and Currents Weather Stations Pressure Air Temp Water Temp Dewpoint Dewpoint Depression Visibility Wind Speed Wind Dir Waves Ship Positions

Krisjanis Valdemars

Last reported at 2017-Jun-23 05:31 UTC. Time now 2017-Jun-23 19:06 UTC.
Position N 54°32' E 005°06'.

Length 183 m; draft 7.2 m.

Type: Tanker. MMSI: 538002757.

Date/timePositionNaut miles runAvg speedWind from/ knotsBaromVisibWave heightAir tempDewpointWater temp
2017-Jun-23 05:31N 54°32' E 005°06'113.6
2017-Jun-23 05:28N 54°31' E 005°05'613.5
2017-Jun-23 05:00N 54°26' E 004°59'7112.7
2017-Jun-22 23:23N 53°30' E 003°45'12312.4
2017-Jun-22 13:30N 51°37' E 002°23'1015.0
2017-Jun-22 12:51N 51°29' E 002°14'515.3
2017-Jun-22 12:31N 51°25' E 002°09'4 8.5
2017-Jun-22 12:00N 51°22' E 002°13'510.2
2017-Jun-22 11:31N 51°21' E 002°21'510.2
2017-Jun-22 11:01N 51°23' E 002°29'510.8
2017-Jun-22 10:31N 51°23' E 002°37'510.1
2017-Jun-22 10:01N 51°23' E 002°45'3 5.9
2017-Jun-22 09:31N 51°22' E 002°50'611.6
2017-Jun-22 09:00N 51°23' E 002°59'611.3
2017-Jun-22 08:31N 51°24' E 003°08'612.1
2017-Jun-22 08:01N 51°25' E 003°18'612.3
2017-Jun-22 07:31N 51°25' E 003°27'612.5
2017-Jun-22 07:01N 51°26' E 003°37'3 1.2
2017-Jun-22 04:11N 51°28' E 003°42'0 0.0
2017-Jun-22 03:23N 51°28' E 003°42'0 0.0
2017-Jun-22 01:17N 51°28' E 003°42'0 0.0
2017-Jun-22 00:53N 51°28' E 003°42'0 0.0
2017-Jun-22 00:05N 51°28' E 003°42'0 0.0
2017-Jun-21 23:59N 51°28' E 003°42'0 0.0
2017-Jun-21 23:05N 51°28' E 003°42'0 0.0
2017-Jun-21 22:53N 51°28' E 003°42'0 0.0
2017-Jun-21 19:47N 51°28' E 003°42'0 0.0
2017-Jun-21 18:23N 51°28' E 003°42'0 0.0
2017-Jun-21 17:53N 51°28' E 003°42'0 0.0
2017-Jun-21 17:23N 51°28' E 003°42'0 0.0
2017-Jun-21 15:29N 51°28' E 003°42'0 0.0
2017-Jun-21 14:59N 51°28' E 003°42'0 0.0
2017-Jun-21 14:29N 51°28' E 003°42'0 0.0
2017-Jun-21 13:29N 51°28' E 003°42'0 0.0
2017-Jun-21 09:17N 51°28' E 003°42'0 0.0
2017-Jun-21 08:53N 51°28' E 003°42'0 0.0
2017-Jun-21 08:17N 51°28' E 003°42'0 0.0
2017-Jun-21 07:59N 51°28' E 003°42'0 0.0
2017-Jun-21 06:53N 51°28' E 003°42'0 0.0
2017-Jun-21 06:23N 51°28' E 003°42'0 0.0
2017-Jun-21 06:00N 51°28' E 003°42'0 0.3
2017-Jun-21 05:30N 51°28' E 003°42'1 2.4
2017-Jun-21 05:00N 51°27' E 003°40'3 6.5
2017-Jun-21 04:30N 51°25' E 003°44'0 0.2
2017-Jun-21 03:30N 51°25' E 003°44'0 0.0
2017-Jun-21 03:00N 51°25' E 003°44'0 0.0
2017-Jun-21 02:24N 51°25' E 003°44'0 0.0
2017-Jun-21 01:49N 51°25' E 003°44'0 0.0
2017-Jun-21 01:24N 51°25' E 003°44'0 0.0
2017-Jun-21 01:00N 51°25' E 003°44'0 0.0
2017-Jun-21 00:31N 51°25' E 003°44'0 0.0
2017-Jun-21 00:00N 51°25' E 003°44'0 0.0
2017-Jun-20 23:06N 51°25' E 003°44'0 0.1
2017-Jun-20 23:00N 51°25' E 003°44'0 0.0
2017-Jun-20 22:12N 51°25' E 003°44'0 0.0
2017-Jun-20 22:00N 51°25' E 003°44'0 0.0
2017-Jun-20 21:30N 51°25' E 003°44'0 0.0
2017-Jun-20 21:00N 51°25' E 003°44'0 0.0
2017-Jun-20 20:30N 51°25' E 003°44'0 0.0
2017-Jun-20 20:00N 51°25' E 003°44'0 0.0
2017-Jun-20 19:30N 51°25' E 003°44'0 0.0
2017-Jun-20 19:00N 51°25' E 003°44'0 0.0
2017-Jun-20 18:30N 51°25' E 003°44'0 0.0
2017-Jun-20 18:00N 51°25' E 003°44'0 0.0
2017-Jun-20 17:30N 51°25' E 003°44'0 0.0
2017-Jun-20 17:00N 51°25' E 003°44'0 0.0
2017-Jun-20 16:18N 51°25' E 003°44'0 0.0
2017-Jun-20 16:00N 51°25' E 003°44'0 0.0
2017-Jun-20 15:30N 51°25' E 003°44'0 0.0
2017-Jun-20 15:00N 51°25' E 003°44'0 0.0
2017-Jun-20 14:24N 51°25' E 003°44'0 0.0
2017-Jun-20 13:30N 51°25' E 003°44'0 0.0
2017-Jun-20 12:42N 51°25' E 003°44'0 0.0
2017-Jun-20 12:30N 51°25' E 003°44'0 0.0
2017-Jun-20 12:00N 51°25' E 003°44'0 0.0
2017-Jun-20 11:30N 51°25' E 003°44'0 0.0
2017-Jun-20 11:00N 51°25' E 003°44'0 0.0
2017-Jun-20 10:30N 51°25' E 003°44'0 0.0
2017-Jun-20 10:00N 51°25' E 003°44'0 0.0
2017-Jun-20 09:27N 51°25' E 003°44'0 0.0
2017-Jun-20 08:54N 51°25' E 003°44'0 0.0
2017-Jun-20 08:24N 51°25' E 003°44'0 0.0
2017-Jun-20 07:48N 51°25' E 003°44'0 0.0
2017-Jun-20 07:30N 51°25' E 003°44'0 0.0
2017-Jun-20 07:00N 51°25' E 003°44'0 0.0
2017-Jun-20 06:30N 51°25' E 003°44'0 0.0
2017-Jun-20 06:00N 51°25' E 003°44'0 0.0
2017-Jun-20 05:30N 51°25' E 003°44'0 0.0
2017-Jun-20 04:51N 51°25' E 003°44'0 0.0
2017-Jun-20 04:30N 51°25' E 003°44'0 0.0
2017-Jun-20 04:00N 51°25' E 003°44'0 0.0
2017-Jun-20 03:24N 51°25' E 003°44'0 0.0
2017-Jun-20 03:00N 51°25' E 003°44'0 0.0
2017-Jun-20 02:30N 51°25' E 003°44'0 0.0
2017-Jun-20 01:42N 51°25' E 003°44'0 0.0
2017-Jun-20 01:24N 51°25' E 003°44'0 0.0
2017-Jun-20 00:36N 51°25' E 003°44'0 0.0
2017-Jun-20 00:30N 51°25' E 003°44'0 0.0
2017-Jun-20 00:00N 51°25' E 003°44'0 0.0
2017-Jun-19 23:24N 51°25' E 003°44'0 0.0
2017-Jun-19 22:48N 51°25' E 003°44'0 0.0
2017-Jun-19 22:30N 51°25' E 003°44'0 0.0
2017-Jun-19 21:48N 51°25' E 003°44'0 0.0
2017-Jun-19 21:24N 51°25' E 003°44'0 0.0
2017-Jun-19 20:54N 51°25' E 003°44'0 0.0
2017-Jun-19 20:30N 51°25' E 003°44'0 0.0
2017-Jun-19 19:54N 51°25' E 003°44'0 0.0
2017-Jun-19 19:24N 51°25' E 003°44'0 0.0
2017-Jun-19 19:00N 51°25' E 003°44'0 0.0
2017-Jun-19 18:24N 51°25' E 003°44'0 0.0
2017-Jun-19 18:00N 51°25' E 003°44'0 0.0
2017-Jun-19 17:30N 51°25' E 003°44'0 0.0
2017-Jun-19 16:42N 51°25' E 003°44'0 0.0
2017-Jun-19 16:18N 51°25' E 003°44'0 0.0
2017-Jun-19 15:54N 51°25' E 003°44'0 0.0
2017-Jun-19 15:00N 51°25' E 003°44'0 0.0
2017-Jun-19 14:18N 51°25' E 003°44'0 0.0
2017-Jun-19 13:30N 51°25' E 003°44'1 1.7
2017-Jun-19 13:00N 51°25' E 003°43'3 4.6
2017-Jun-19 12:27N 51°28' E 003°42'0 0.0
2017-Jun-19 09:39N 51°28' E 003°42'0 0.0
2017-Jun-19 08:33N 51°28' E 003°42'0 0.0
2017-Jun-19 07:51N 51°28' E 003°42'0 0.0
2017-Jun-19 04:21N 51°28' E 003°42'0 0.0
2017-Jun-19 03:33N 51°28' E 003°42'0 0.0
2017-Jun-19 03:21N 51°28' E 003°42'0 0.0
2017-Jun-19 01:03N 51°28' E 003°42'0 0.0
2017-Jun-19 00:33N 51°28' E 003°42'0 0.0
2017-Jun-19 00:21N 51°28' E 003°42'0 0.0
2017-Jun-18 23:51N 51°28' E 003°42'0 0.0
2017-Jun-18 23:27N 51°28' E 003°42'0 0.0
2017-Jun-18 20:21N 51°28' E 003°42'0 0.0
2017-Jun-18 19:51N 51°28' E 003°42'0 0.0
2017-Jun-18 18:51N 51°28' E 003°42'0 0.0
2017-Jun-18 17:21N 51°28' E 003°42'0 0.0
2017-Jun-18 16:39N 51°28' E 003°42'0 0.0
2017-Jun-18 16:27N 51°28' E 003°42'0 0.0
2017-Jun-18 15:57N 51°28' E 003°42'0 0.0
2017-Jun-18 14:33N 51°28' E 003°42'0 0.0
2017-Jun-18 14:27N 51°28' E 003°42'0 0.0
2017-Jun-18 13:15N 51°28' E 003°42'0 0.0
2017-Jun-18 12:51N 51°28' E 003°42'0 0.0
2017-Jun-18 12:27N 51°28' E 003°42'0 0.0
2017-Jun-18 11:51N 51°28' E 003°42'0 0.0
2017-Jun-18 10:27N 51°28' E 003°42'0 0.0
2017-Jun-18 08:27N 51°28' E 003°42'0 0.0
2017-Jun-18 05:21N 51°28' E 003°42'0 0.0
2017-Jun-18 04:51N 51°28' E 003°42'0 0.0
2017-Jun-18 04:21N 51°28' E 003°42'0 0.0
2017-Jun-18 03:39N 51°28' E 003°42'0 0.0
2017-Jun-18 03:21N 51°28' E 003°42'0 0.0
2017-Jun-18 02:09N 51°28' E 003°42'0 0.0
2017-Jun-18 01:33N 51°28' E 003°42'0 0.0
2017-Jun-18 01:30N 51°28' E 003°42'0 0.0
2017-Jun-18 00:51N 51°28' E 003°42'0 0.0
2017-Jun-17 23:45N 51°28' E 003°42'0 0.0
2017-Jun-17 23:30N 51°28' E 003°42'0 0.0
2017-Jun-17 23:00N 51°28' E 003°42'0 0.0
2017-Jun-17 22:30N 51°28' E 003°42'0 0.0
2017-Jun-17 22:00N 51°28' E 003°42'0 0.1
2017-Jun-17 21:30N 51°28' E 003°42'1 2.0
2017-Jun-17 21:00N 51°27' E 003°41'4 7.5
2017-Jun-17 20:30N 51°26' E 003°35'611.3
2017-Jun-17 20:00N 51°25' E 003°26'713.0
2017-Jun-17 19:31N 51°25' E 003°16'713.6
2017-Jun-17 19:00N 51°24' E 003°05'713.2
2017-Jun-17 18:30N 51°22' E 002°55'713.0
2017-Jun-17 18:00N 51°22' E 002°44'4 8.9
2017-Jun-17 17:30N 51°22' E 002°37'3 6.7
2017-Jun-17 17:00N 51°25' E 002°36'0 0.1
2017-Jun-17 16:26N 51°25' E 002°36'0 0.2
2017-Jun-17 15:59N 51°25' E 002°35'0 0.1
2017-Jun-17 15:29N 51°25' E 002°35'0 0.0
2017-Jun-17 14:59N 51°25' E 002°35'0 0.0
2017-Jun-17 14:29N 51°25' E 002°35'0 0.0
2017-Jun-17 13:29N 51°25' E 002°35'0 0.0
2017-Jun-17 12:59N 51°25' E 002°35'0 0.0
2017-Jun-17 12:29N 51°25' E 002°35'0 0.0
2017-Jun-17 11:59N 51°25' E 002°35'0 0.0
2017-Jun-17 11:29N 51°25' E 002°35'0 0.4
2017-Jun-17 11:00N 51°25' E 002°35'3 6.4
2017-Jun-17 10:30N 51°23' E 002°32'510.1
2017-Jun-17 10:00N 51°21' E 002°25'612.3
2017-Jun-17 09:30N 51°19' E 002°15'510.8
2017-Jun-17 09:00N 51°21' E 002°07'612.9
2017-Jun-17 08:31N 51°24' E 001°58'510.1
2017-Jun-17 08:00N 51°29' E 002°01'611.6
2017-Jun-17 07:30N 51°33' E 002°07'611.5
2017-Jun-17 07:00N 51°37' E 002°13'611.5
2017-Jun-17 06:29N 51°42' E 002°20'4512.1
2017-Jun-17 02:46N 52°23' E 002°48'414.0
2017-Jun-17 02:30N 52°27' E 002°51'714.0
2017-Jun-17 02:00N 52°33' E 002°56'914.0
2017-Jun-17 01:20N 52°41' E 003°03'513.8
2017-Jun-17 00:58N 52°46' E 003°07'713.6
2017-Jun-17 00:28N 52°51' E 003°13'613.3
2017-Jun-17 00:00N 52°57' E 003°17'38212.0
2017-Jun-15 16:15N 57°52' E 010°25'412.2
2017-Jun-15 15:58N 57°51' E 010°31'612.4
2017-Jun-15 15:30N 57°51' E 010°42'611.4
2017-Jun-15 15:00N 57°47' E 010°50'1312.6
2017-Jun-15 14:00N 57°38' E 011°07'612.6
2017-Jun-15 13:30N 57°34' E 011°15'712.9
2017-Jun-15 12:59N 57°29' E 011°24'612.3
2017-Jun-15 12:31N 57°24' E 011°29'612.7
2017-Jun-15 12:00N 57°18' E 011°33'812.9
2017-Jun-15 11:23N 57°10' E 011°38'912.6
2017-Jun-15 10:42N 57°02' E 011°42'312.4
2017-Jun-15 10:29N 56°60' E 011°44'612.6
2017-Jun-15 10:00N 56°54' E 011°48'612.6
2017-Jun-15 09:30N 56°48' E 011°52'610.8
2017-Jun-15 08:59N 56°43' E 011°48'813.5
2017-Jun-15 08:23N 56°38' E 011°37'513.7
2017-Jun-15 07:59N 56°34' E 011°29'8410.9
2017-Jun-15 00:20N 55°12' E 011°05'411.6
2017-Jun-14 23:58N 55°07' E 011°03'511.7
2017-Jun-14 23:30N 55°02' E 011°02'611.4
2017-Jun-14 23:00N 54°58' E 010°56'611.9
2017-Jun-14 22:30N 54°53' E 010°50'611.3
2017-Jun-14 22:00N 54°47' E 010°49'611.1
2017-Jun-14 21:30N 54°42' E 010°47'510.6
2017-Jun-14 21:00N 54°38' E 010°54'611.2
2017-Jun-14 20:30N 54°36' E 011°03'611.6
2017-Jun-14 20:00N 54°35' E 011°13'611.1
2017-Jun-14 19:30N 54°33' E 011°21'611.6
2017-Jun-14 19:00N 54°30' E 011°31'611.7
2017-Jun-14 18:29N 54°28' E 011°40'611.5
2017-Jun-14 18:00N 54°27' E 011°49'612.4
2017-Jun-14 17:30N 54°27' E 012°00'611.7
2017-Jun-14 17:00N 54°27' E 012°10'612.2
2017-Jun-14 16:30N 54°32' E 012°14'510.6
2017-Jun-14 16:00N 54°38' E 012°16'5 9.6
2017-Jun-14 15:30N 54°40' E 012°23'3810.9
2017-Jun-14 12:02N 54°56' E 013°23'212.6
2017-Jun-14 11:53N 54°56' E 013°26'512.5
2017-Jun-14 11:30N 54°58' E 013°34'612.5
2017-Jun-14 11:00N 54°60' E 013°44'612.4
2017-Jun-14 10:30N 55°02' E 013°55'612.4
2017-Jun-14 09:59N 55°04' E 014°05'612.5
2017-Jun-14 09:30N 55°09' E 014°12'612.8
2017-Jun-14 09:00N 55°14' E 014°19'612.7
2017-Jun-14 08:30N 55°19' E 014°26'612.7
2017-Jun-14 08:00N 55°24' E 014°32'612.5
2017-Jun-14 07:30N 55°28' E 014°41'612.6
2017-Jun-14 07:00N 55°31' E 014°51'612.8
2017-Jun-14 06:30N 55°34' E 015°01'612.9
2017-Jun-14 06:00N 55°37' E 015°11'612.7
2017-Jun-14 05:30N 55°39' E 015°21'612.5
2017-Jun-14 05:00N 55°41' E 015°32'612.4
2017-Jun-14 04:30N 55°42' E 015°42'612.6
2017-Jun-14 04:00N 55°44' E 015°53'612.6
2017-Jun-14 03:30N 55°45' E 016°04'612.6
2017-Jun-14 03:00N 55°47' E 016°15'612.7
2017-Jun-14 02:30N 55°48' E 016°26'612.7
2017-Jun-14 02:00N 55°50' E 016°37'612.6
2017-Jun-14 01:30N 55°51' E 016°48'612.5
2017-Jun-14 01:00N 55°53' E 016°59'612.6
2017-Jun-14 00:30N 55°55' E 017°10'612.6
2017-Jun-14 00:00N 55°56' E 017°20'612.5
2017-Jun-13 23:30N 55°58' E 017°31'612.4
2017-Jun-13 23:00N 55°59' E 017°42'612.4
2017-Jun-13 22:30N 56°03' E 017°51'612.4
2017-Jun-13 22:00N 56°06' E 018°01'612.5
2017-Jun-13 21:29N 56°09' E 018°11'17912.7
2017-Jun-13 07:25N 58°42' E 021°03'614.1
2017-Jun-13 07:00N 58°47' E 021°09'713.1
2017-Jun-13 06:30N 58°52' E 021°16'713.0
2017-Jun-13 05:57N 58°58' E 021°23'  
Track history (hours):
 
Tides and Currents Weather Stations Pressure Air Temp Water Temp Dewpoint Dewpoint Depression Visibility Wind Speed Wind Dir Waves Ship Positions

Krisjanis Valdemars

Last reported at 2017-Jun-23 05:31 UTC. Time now 2017-Jun-23 19:06 UTC.
Position N 54°32' E 005°06'.

Length 183 m; draft 7.2 m.

Type: Tanker. MMSI: 538002757.

Date/timePositionNaut miles runAvg speedWind from/ knotsBaromVisibWave heightAir tempDewpointWater temp
2017-Jun-23 05:31N 54°32' E 005°06'113.6
2017-Jun-23 05:28N 54°31' E 005°05'613.5
2017-Jun-23 05:00N 54°26' E 004°59'7112.7
2017-Jun-22 23:23N 53°30' E 003°45'12312.4
2017-Jun-22 13:30N 51°37' E 002°23'1015.0
2017-Jun-22 12:51N 51°29' E 002°14'515.3
2017-Jun-22 12:31N 51°25' E 002°09'4 8.5
2017-Jun-22 12:00N 51°22' E 002°13'510.2
2017-Jun-22 11:31N 51°21' E 002°21'510.2
2017-Jun-22 11:01N 51°23' E 002°29'510.8
2017-Jun-22 10:31N 51°23' E 002°37'510.1
2017-Jun-22 10:01N 51°23' E 002°45'3 5.9
2017-Jun-22 09:31N 51°22' E 002°50'611.6
2017-Jun-22 09:00N 51°23' E 002°59'611.3
2017-Jun-22 08:31N 51°24' E 003°08'612.1
2017-Jun-22 08:01N 51°25' E 003°18'612.3
2017-Jun-22 07:31N 51°25' E 003°27'612.5
2017-Jun-22 07:01N 51°26' E 003°37'3 1.2
2017-Jun-22 04:11N 51°28' E 003°42'0 0.0
2017-Jun-22 03:23N 51°28' E 003°42'0 0.0
2017-Jun-22 01:17N 51°28' E 003°42'0 0.0
2017-Jun-22 00:53N 51°28' E 003°42'0 0.0
2017-Jun-22 00:05N 51°28' E 003°42'0 0.0
2017-Jun-21 23:59N 51°28' E 003°42'0 0.0
2017-Jun-21 23:05N 51°28' E 003°42'0 0.0
2017-Jun-21 22:53N 51°28' E 003°42'0 0.0
2017-Jun-21 19:47N 51°28' E 003°42'0 0.0
2017-Jun-21 18:23N 51°28' E 003°42'0 0.0
2017-Jun-21 17:53N 51°28' E 003°42'0 0.0
2017-Jun-21 17:23N 51°28' E 003°42'0 0.0
2017-Jun-21 15:29N 51°28' E 003°42'0 0.0
2017-Jun-21 14:59N 51°28' E 003°42'0 0.0
2017-Jun-21 14:29N 51°28' E 003°42'0 0.0
2017-Jun-21 13:29N 51°28' E 003°42'0 0.0
2017-Jun-21 09:17N 51°28' E 003°42'0 0.0
2017-Jun-21 08:53N 51°28' E 003°42'0 0.0
2017-Jun-21 08:17N 51°28' E 003°42'0 0.0
2017-Jun-21 07:59N 51°28' E 003°42'0 0.0
2017-Jun-21 06:53N 51°28' E 003°42'0 0.0
2017-Jun-21 06:23N 51°28' E 003°42'0 0.0
2017-Jun-21 06:00N 51°28' E 003°42'0 0.3
2017-Jun-21 05:30N 51°28' E 003°42'1 2.4
2017-Jun-21 05:00N 51°27' E 003°40'3 6.5
2017-Jun-21 04:30N 51°25' E 003°44'0 0.2
2017-Jun-21 03:30N 51°25' E 003°44'0 0.0
2017-Jun-21 03:00N 51°25' E 003°44'0 0.0
2017-Jun-21 02:24N 51°25' E 003°44'0 0.0
2017-Jun-21 01:49N 51°25' E 003°44'0 0.0
2017-Jun-21 01:24N 51°25' E 003°44'0 0.0
2017-Jun-21 01:00N 51°25' E 003°44'0 0.0
2017-Jun-21 00:31N 51°25' E 003°44'0 0.0
2017-Jun-21 00:00N 51°25' E 003°44'0 0.0
2017-Jun-20 23:06N 51°25' E 003°44'0 0.1
2017-Jun-20 23:00N 51°25' E 003°44'0 0.0
2017-Jun-20 22:12N 51°25' E 003°44'0 0.0
2017-Jun-20 22:00N 51°25' E 003°44'0 0.0
2017-Jun-20 21:30N 51°25' E 003°44'0 0.0
2017-Jun-20 21:00N 51°25' E 003°44'0 0.0
2017-Jun-20 20:30N 51°25' E 003°44'0 0.0
2017-Jun-20 20:00N 51°25' E 003°44'0 0.0
2017-Jun-20 19:30N 51°25' E 003°44'0 0.0
2017-Jun-20 19:00N 51°25' E 003°44'0 0.0
2017-Jun-20 18:30N 51°25' E 003°44'0 0.0
2017-Jun-20 18:00N 51°25' E 003°44'0 0.0
2017-Jun-20 17:30N 51°25' E 003°44'0 0.0
2017-Jun-20 17:00N 51°25' E 003°44'0 0.0
2017-Jun-20 16:18N 51°25' E 003°44'0 0.0
2017-Jun-20 16:00N 51°25' E 003°44'0 0.0
2017-Jun-20 15:30N 51°25' E 003°44'0 0.0
2017-Jun-20 15:00N 51°25' E 003°44'0 0.0
2017-Jun-20 14:24N 51°25' E 003°44'0 0.0
2017-Jun-20 13:30N 51°25' E 003°44'0 0.0
2017-Jun-20 12:42N 51°25' E 003°44'0 0.0
2017-Jun-20 12:30N 51°25' E 003°44'0 0.0
2017-Jun-20 12:00N 51°25' E 003°44'0 0.0
2017-Jun-20 11:30N 51°25' E 003°44'0 0.0
2017-Jun-20 11:00N 51°25' E 003°44'0 0.0
2017-Jun-20 10:30N 51°25' E 003°44'0 0.0
2017-Jun-20 10:00N 51°25' E 003°44'0 0.0
2017-Jun-20 09:27N 51°25' E 003°44'0 0.0
2017-Jun-20 08:54N 51°25' E 003°44'0 0.0
2017-Jun-20 08:24N 51°25' E 003°44'0 0.0
2017-Jun-20 07:48N 51°25' E 003°44'0 0.0
2017-Jun-20 07:30N 51°25' E 003°44'0 0.0
2017-Jun-20 07:00N 51°25' E 003°44'0 0.0
2017-Jun-20 06:30N 51°25' E 003°44'0 0.0
2017-Jun-20 06:00N 51°25' E 003°44'0 0.0
2017-Jun-20 05:30N 51°25' E 003°44'0 0.0
2017-Jun-20 04:51N 51°25' E 003°44'0 0.0
2017-Jun-20 04:30N 51°25' E 003°44'0 0.0
2017-Jun-20 04:00N 51°25' E 003°44'0 0.0
2017-Jun-20 03:24N 51°25' E 003°44'0 0.0
2017-Jun-20 03:00N 51°25' E 003°44'0 0.0
2017-Jun-20 02:30N 51°25' E 003°44'0 0.0
2017-Jun-20 01:42N 51°25' E 003°44'0 0.0
2017-Jun-20 01:24N 51°25' E 003°44'0 0.0
2017-Jun-20 00:36N 51°25' E 003°44'0 0.0
2017-Jun-20 00:30N 51°25' E 003°44'0 0.0
2017-Jun-20 00:00N 51°25' E 003°44'0 0.0
2017-Jun-19 23:24N 51°25' E 003°44'0 0.0
2017-Jun-19 22:48N 51°25' E 003°44'0 0.0
2017-Jun-19 22:30N 51°25' E 003°44'0 0.0
2017-Jun-19 21:48N 51°25' E 003°44'0 0.0
2017-Jun-19 21:24N 51°25' E 003°44'0 0.0
2017-Jun-19 20:54N 51°25' E 003°44'0 0.0
2017-Jun-19 20:30N 51°25' E 003°44'0 0.0
2017-Jun-19 19:54N 51°25' E 003°44'0 0.0
2017-Jun-19 19:24N 51°25' E 003°44'0 0.0
2017-Jun-19 19:00N 51°25' E 003°44'0 0.0
2017-Jun-19 18:24N 51°25' E 003°44'0 0.0
2017-Jun-19 18:00N 51°25' E 003°44'0 0.0
2017-Jun-19 17:30N 51°25' E 003°44'0 0.0
2017-Jun-19 16:42N 51°25' E 003°44'0 0.0
2017-Jun-19 16:18N 51°25' E 003°44'0 0.0
2017-Jun-19 15:54N 51°25' E 003°44'0 0.0
2017-Jun-19 15:00N 51°25' E 003°44'0 0.0
2017-Jun-19 14:18N 51°25' E 003°44'0 0.0
2017-Jun-19 13:30N 51°25' E 003°44'1 1.7
2017-Jun-19 13:00N 51°25' E 003°43'3 4.6
2017-Jun-19 12:27N 51°28' E 003°42'0 0.0
2017-Jun-19 09:39N 51°28' E 003°42'0 0.0
2017-Jun-19 08:33N 51°28' E 003°42'0 0.0
2017-Jun-19 07:51N 51°28' E 003°42'0 0.0
2017-Jun-19 04:21N 51°28' E 003°42'0 0.0
2017-Jun-19 03:33N 51°28' E 003°42'0 0.0
2017-Jun-19 03:21N 51°28' E 003°42'0 0.0
2017-Jun-19 01:03N 51°28' E 003°42'0 0.0
2017-Jun-19 00:33N 51°28' E 003°42'0 0.0
2017-Jun-19 00:21N 51°28' E 003°42'0 0.0
2017-Jun-18 23:51N 51°28' E 003°42'0 0.0
2017-Jun-18 23:27N 51°28' E 003°42'0 0.0
2017-Jun-18 20:21N 51°28' E 003°42'0 0.0
2017-Jun-18 19:51N 51°28' E 003°42'0 0.0
2017-Jun-18 18:51N 51°28' E 003°42'0 0.0
2017-Jun-18 17:21N 51°28' E 003°42'0 0.0
2017-Jun-18 16:39N 51°28' E 003°42'0 0.0
2017-Jun-18 16:27N 51°28' E 003°42'0 0.0
2017-Jun-18 15:57N 51°28' E 003°42'0 0.0
2017-Jun-18 14:33N 51°28' E 003°42'0 0.0
2017-Jun-18 14:27N 51°28' E 003°42'0 0.0
2017-Jun-18 13:15N 51°28' E 003°42'0 0.0
2017-Jun-18 12:51N 51°28' E 003°42'0 0.0
2017-Jun-18 12:27N 51°28' E 003°42'0 0.0
2017-Jun-18 11:51N 51°28' E 003°42'0 0.0
2017-Jun-18 10:27N 51°28' E 003°42'0 0.0
2017-Jun-18 08:27N 51°28' E 003°42'0 0.0
2017-Jun-18 05:21N 51°28' E 003°42'0 0.0
2017-Jun-18 04:51N 51°28' E 003°42'0 0.0
2017-Jun-18 04:21N 51°28' E 003°42'0 0.0
2017-Jun-18 03:39N 51°28' E 003°42'0 0.0
2017-Jun-18 03:21N 51°28' E 003°42'0 0.0
2017-Jun-18 02:09N 51°28' E 003°42'0 0.0
2017-Jun-18 01:33N 51°28' E 003°42'0 0.0
2017-Jun-18 01:30N 51°28' E 003°42'0 0.0
2017-Jun-18 00:51N 51°28' E 003°42'0 0.0
2017-Jun-17 23:45N 51°28' E 003°42'0 0.0
2017-Jun-17 23:30N 51°28' E 003°42'0 0.0
2017-Jun-17 23:00N 51°28' E 003°42'0 0.0
2017-Jun-17 22:30N 51°28' E 003°42'0 0.0
2017-Jun-17 22:00N 51°28' E 003°42'0 0.1
2017-Jun-17 21:30N 51°28' E 003°42'1 2.0
2017-Jun-17 21:00N 51°27' E 003°41'4 7.5
2017-Jun-17 20:30N 51°26' E 003°35'611.3
2017-Jun-17 20:00N 51°25' E 003°26'713.0
2017-Jun-17 19:31N 51°25' E 003°16'713.6
2017-Jun-17 19:00N 51°24' E 003°05'713.2
2017-Jun-17 18:30N 51°22' E 002°55'713.0
2017-Jun-17 18:00N 51°22' E 002°44'4 8.9
2017-Jun-17 17:30N 51°22' E 002°37'3 6.7
2017-Jun-17 17:00N 51°25' E 002°36'0 0.1
2017-Jun-17 16:26N 51°25' E 002°36'0 0.2
2017-Jun-17 15:59N 51°25' E 002°35'0 0.1
2017-Jun-17 15:29N 51°25' E 002°35'0 0.0
2017-Jun-17 14:59N 51°25' E 002°35'0 0.0
2017-Jun-17 14:29N 51°25' E 002°35'0 0.0
2017-Jun-17 13:29N 51°25' E 002°35'0 0.0
2017-Jun-17 12:59N 51°25' E 002°35'0 0.0
2017-Jun-17 12:29N 51°25' E 002°35'0 0.0
2017-Jun-17 11:59N 51°25' E 002°35'0 0.0
2017-Jun-17 11:29N 51°25' E 002°35'0 0.4
2017-Jun-17 11:00N 51°25' E 002°35'3 6.4
2017-Jun-17 10:30N 51°23' E 002°32'510.1
2017-Jun-17 10:00N 51°21' E 002°25'612.3
2017-Jun-17 09:30N 51°19' E 002°15'510.8
2017-Jun-17 09:00N 51°21' E 002°07'612.9
2017-Jun-17 08:31N 51°24' E 001°58'510.1
2017-Jun-17 08:00N 51°29' E 002°01'611.6
2017-Jun-17 07:30N 51°33' E 002°07'611.5
2017-Jun-17 07:00N 51°37' E 002°13'611.5
2017-Jun-17 06:29N 51°42' E 002°20'4512.1
2017-Jun-17 02:46N 52°23' E 002°48'414.0
2017-Jun-17 02:30N 52°27' E 002°51'714.0
2017-Jun-17 02:00N 52°33' E 002°56'914.0
2017-Jun-17 01:20N 52°41' E 003°03'513.8
2017-Jun-17 00:58N 52°46' E 003°07'713.6
2017-Jun-17 00:28N 52°51' E 003°13'613.3
2017-Jun-17 00:00N 52°57' E 003°17'38212.0
2017-Jun-15 16:15N 57°52' E 010°25'412.2
2017-Jun-15 15:58N 57°51' E 010°31'612.4
2017-Jun-15 15:30N 57°51' E 010°42'611.4
2017-Jun-15 15:00N 57°47' E 010°50'1312.6
2017-Jun-15 14:00N 57°38' E 011°07'612.6
2017-Jun-15 13:30N 57°34' E 011°15'712.9
2017-Jun-15 12:59N 57°29' E 011°24'612.3
2017-Jun-15 12:31N 57°24' E 011°29'612.7
2017-Jun-15 12:00N 57°18' E 011°33'812.9
2017-Jun-15 11:23N 57°10' E 011°38'912.6
2017-Jun-15 10:42N 57°02' E 011°42'312.4
2017-Jun-15 10:29N 56°60' E 011°44'612.6
2017-Jun-15 10:00N 56°54' E 011°48'612.6
2017-Jun-15 09:30N 56°48' E 011°52'610.8
2017-Jun-15 08:59N 56°43' E 011°48'813.5
2017-Jun-15 08:23N 56°38' E 011°37'513.7
2017-Jun-15 07:59N 56°34' E 011°29'8410.9
2017-Jun-15 00:20N 55°12' E 011°05'411.6
2017-Jun-14 23:58N 55°07' E 011°03'511.7
2017-Jun-14 23:30N 55°02' E 011°02'611.4
2017-Jun-14 23:00N 54°58' E 010°56'611.9
2017-Jun-14 22:30N 54°53' E 010°50'611.3
2017-Jun-14 22:00N 54°47' E 010°49'611.1
2017-Jun-14 21:30N 54°42' E 010°47'510.6
2017-Jun-14 21:00N 54°38' E 010°54'611.2
2017-Jun-14 20:30N 54°36' E 011°03'611.6
2017-Jun-14 20:00N 54°35' E 011°13'611.1
2017-Jun-14 19:30N 54°33' E 011°21'611.6
2017-Jun-14 19:00N 54°30' E 011°31'611.7
2017-Jun-14 18:29N 54°28' E 011°40'611.5
2017-Jun-14 18:00N 54°27' E 011°49'612.4
2017-Jun-14 17:30N 54°27' E 012°00'611.7
2017-Jun-14 17:00N 54°27' E 012°10'612.2
2017-Jun-14 16:30N 54°32' E 012°14'510.6
2017-Jun-14 16:00N 54°38' E 012°16'5 9.6
2017-Jun-14 15:30N 54°40' E 012°23'3810.9
2017-Jun-14 12:02N 54°56' E 013°23'212.6
2017-Jun-14 11:53N 54°56' E 013°26'512.5
2017-Jun-14 11:30N 54°58' E 013°34'612.5
2017-Jun-14 11:00N 54°60' E 013°44'612.4
2017-Jun-14 10:30N 55°02' E 013°55'612.4
2017-Jun-14 09:59N 55°04' E 014°05'612.5
2017-Jun-14 09:30N 55°09' E 014°12'612.8
2017-Jun-14 09:00N 55°14' E 014°19'612.7
2017-Jun-14 08:30N 55°19' E 014°26'612.7
2017-Jun-14 08:00N 55°24' E 014°32'612.5
2017-Jun-14 07:30N 55°28' E 014°41'612.6
2017-Jun-14 07:00N 55°31' E 014°51'612.8
2017-Jun-14 06:30N 55°34' E 015°01'612.9
2017-Jun-14 06:00N 55°37' E 015°11'612.7
2017-Jun-14 05:30N 55°39' E 015°21'612.5
2017-Jun-14 05:00N 55°41' E 015°32'612.4
2017-Jun-14 04:30N 55°42' E 015°42'612.6
2017-Jun-14 04:00N 55°44' E 015°53'612.6
2017-Jun-14 03:30N 55°45' E 016°04'612.6
2017-Jun-14 03:00N 55°47' E 016°15'612.7
2017-Jun-14 02:30N 55°48' E 016°26'612.7
2017-Jun-14 02:00N 55°50' E 016°37'612.6
2017-Jun-14 01:30N 55°51' E 016°48'612.5
2017-Jun-14 01:00N 55°53' E 016°59'612.6
2017-Jun-14 00:30N 55°55' E 017°10'612.6
2017-Jun-14 00:00N 55°56' E 017°20'612.5
2017-Jun-13 23:30N 55°58' E 017°31'612.4
2017-Jun-13 23:00N 55°59' E 017°42'612.4
2017-Jun-13 22:30N 56°03' E 017°51'612.4
2017-Jun-13 22:00N 56°06' E 018°01'612.5
2017-Jun-13 21:29N 56°09' E 018°11'17912.7
2017-Jun-13 07:25N 58°42' E 021°03'614.1
2017-Jun-13 07:00N 58°47' E 021°09'713.1
2017-Jun-13 06:30N 58°52' E 021°16'713.0
2017-Jun-13 05:57N 58°58' E 021°23'  

Dump ship's entire track history